<?xml version="1.0" encoding="UTF-8" standalone="no" ?>
<gpx xmlns="http://www.topografix.com/GPX/1/1" xmlns:xsi="http://www.w3.org/2001/XMLSchema-instance" xsi:schemaLocation="http://www.topografix.com/GPX/1/1 http://www.topografix.com/GPX/1/1/gpx.xsd" version="1.1" creator="VisuGPX - https://www.visugpx.com">
  <metadata>
    <name>Dans la garrigue de Cournonterral</name>
    <desc><![CDATA[rando à ne pas faire après pluie, car chemins très pierreux  et traversée de gué
]]></desc>
  </metadata>
  <trk>
    <name><![CDATA[Dans la garrigue de Cournonterral]]></name>
    <trkseg>
      <trkpt lat="43.55866" lon="3.72064">
        <ele>50</ele>
        <time>2023-11-23T10:34:22+01:00</time>
      </trkpt>
      <trkpt lat="43.5588" lon="3.72039">
        <ele>42</ele>
        <time>2023-11-23T10:37:58+01:00</time>
      </trkpt>
      <trkpt lat="43.55871" lon="3.72009">
        <ele>42</ele>
        <time>2023-11-23T10:38:50+01:00</time>
      </trkpt>
      <trkpt lat="43.55881" lon="3.71981">
        <ele>39</ele>
        <time>2023-11-23T10:39:17+01:00</time>
      </trkpt>
      <trkpt lat="43.55889" lon="3.71951">
        <ele>37</ele>
        <time>2023-11-23T10:39:44+01:00</time>
      </trkpt>
      <trkpt lat="43.55907" lon="3.71931">
        <ele>35</ele>
        <time>2023-11-23T10:40:05+01:00</time>
      </trkpt>
      <trkpt lat="43.5592" lon="3.71905">
        <ele>30</ele>
        <time>2023-11-23T10:40:33+01:00</time>
      </trkpt>
      <trkpt lat="43.5593" lon="3.71875">
        <ele>33</ele>
        <time>2023-11-23T10:41:12+01:00</time>
      </trkpt>
      <trkpt lat="43.55939" lon="3.71847">
        <ele>34</ele>
        <time>2023-11-23T10:41:36+01:00</time>
      </trkpt>
      <trkpt lat="43.55953" lon="3.71822">
        <ele>36</ele>
        <time>2023-11-23T10:42:00+01:00</time>
      </trkpt>
      <trkpt lat="43.5597" lon="3.71801">
        <ele>35</ele>
        <time>2023-11-23T10:42:26+01:00</time>
      </trkpt>
      <trkpt lat="43.55987" lon="3.71778">
        <ele>36</ele>
        <time>2023-11-23T10:42:49+01:00</time>
      </trkpt>
      <trkpt lat="43.56017" lon="3.7173">
        <ele>34</ele>
        <time>2023-11-23T10:43:34+01:00</time>
      </trkpt>
      <trkpt lat="43.56032" lon="3.71706">
        <ele>37</ele>
        <time>2023-11-23T10:44:01+01:00</time>
      </trkpt>
      <trkpt lat="43.56048" lon="3.71682">
        <ele>32</ele>
        <time>2023-11-23T10:44:27+01:00</time>
      </trkpt>
      <trkpt lat="43.56063" lon="3.71659">
        <ele>30</ele>
        <time>2023-11-23T10:44:50+01:00</time>
      </trkpt>
      <trkpt lat="43.56078" lon="3.71635">
        <ele>33</ele>
        <time>2023-11-23T10:45:12+01:00</time>
      </trkpt>
      <trkpt lat="43.56097" lon="3.71618">
        <ele>35</ele>
        <time>2023-11-23T10:45:37+01:00</time>
      </trkpt>
      <trkpt lat="43.56108" lon="3.7159">
        <ele>33</ele>
        <time>2023-11-23T10:46:12+01:00</time>
      </trkpt>
      <trkpt lat="43.56113" lon="3.71559">
        <ele>31</ele>
        <time>2023-11-23T10:46:39+01:00</time>
      </trkpt>
      <trkpt lat="43.56121" lon="3.71529">
        <ele>28</ele>
        <time>2023-11-23T10:47:03+01:00</time>
      </trkpt>
      <trkpt lat="43.56131" lon="3.71501">
        <ele>29</ele>
        <time>2023-11-23T10:47:26+01:00</time>
      </trkpt>
      <trkpt lat="43.56144" lon="3.71474">
        <ele>30</ele>
        <time>2023-11-23T10:47:51+01:00</time>
      </trkpt>
      <trkpt lat="43.56156" lon="3.71447">
        <ele>31</ele>
        <time>2023-11-23T10:48:15+01:00</time>
      </trkpt>
      <trkpt lat="43.5616" lon="3.71416">
        <ele>32</ele>
        <time>2023-11-23T10:48:38+01:00</time>
      </trkpt>
      <trkpt lat="43.56169" lon="3.71387">
        <ele>31</ele>
        <time>2023-11-23T10:49:03+01:00</time>
      </trkpt>
      <trkpt lat="43.56185" lon="3.71365">
        <ele>30</ele>
        <time>2023-11-23T10:49:27+01:00</time>
      </trkpt>
      <trkpt lat="43.56207" lon="3.71356">
        <ele>33</ele>
        <time>2023-11-23T10:49:51+01:00</time>
      </trkpt>
      <trkpt lat="43.5623" lon="3.71357">
        <ele>36</ele>
        <time>2023-11-23T10:50:14+01:00</time>
      </trkpt>
      <trkpt lat="43.56254" lon="3.71362">
        <ele>39</ele>
        <time>2023-11-23T10:50:38+01:00</time>
      </trkpt>
      <trkpt lat="43.56277" lon="3.71358">
        <ele>39</ele>
        <time>2023-11-23T10:51:04+01:00</time>
      </trkpt>
      <trkpt lat="43.56299" lon="3.71348">
        <ele>39</ele>
        <time>2023-11-23T10:51:28+01:00</time>
      </trkpt>
      <trkpt lat="43.5632" lon="3.71338">
        <ele>37</ele>
        <time>2023-11-23T10:51:54+01:00</time>
      </trkpt>
      <trkpt lat="43.56339" lon="3.71319">
        <ele>33</ele>
        <time>2023-11-23T10:52:20+01:00</time>
      </trkpt>
      <trkpt lat="43.5636" lon="3.71308">
        <ele>32</ele>
        <time>2023-11-23T10:52:48+01:00</time>
      </trkpt>
      <trkpt lat="43.56383" lon="3.71304">
        <ele>34</ele>
        <time>2023-11-23T10:53:13+01:00</time>
      </trkpt>
      <trkpt lat="43.56406" lon="3.71298">
        <ele>37</ele>
        <time>2023-11-23T10:53:40+01:00</time>
      </trkpt>
      <trkpt lat="43.56428" lon="3.71291">
        <ele>39</ele>
        <time>2023-11-23T10:54:07+01:00</time>
      </trkpt>
      <trkpt lat="43.5645" lon="3.71288">
        <ele>41</ele>
        <time>2023-11-23T10:55:14+01:00</time>
      </trkpt>
      <trkpt lat="43.56474" lon="3.71288">
        <ele>47</ele>
        <time>2023-11-23T10:56:38+01:00</time>
      </trkpt>
      <trkpt lat="43.56493" lon="3.7127">
        <ele>44</ele>
        <time>2023-11-23T10:57:07+01:00</time>
      </trkpt>
      <trkpt lat="43.56512" lon="3.71252">
        <ele>43</ele>
        <time>2023-11-23T10:57:32+01:00</time>
      </trkpt>
      <trkpt lat="43.56528" lon="3.71231">
        <ele>42</ele>
        <time>2023-11-23T10:57:58+01:00</time>
      </trkpt>
      <trkpt lat="43.5654" lon="3.71204">
        <ele>40</ele>
        <time>2023-11-23T10:58:22+01:00</time>
      </trkpt>
      <trkpt lat="43.56553" lon="3.71178">
        <ele>39</ele>
        <time>2023-11-23T10:58:47+01:00</time>
      </trkpt>
      <trkpt lat="43.5657" lon="3.71156">
        <ele>39</ele>
        <time>2023-11-23T10:59:14+01:00</time>
      </trkpt>
      <trkpt lat="43.56588" lon="3.71138">
        <ele>40</ele>
        <time>2023-11-23T10:59:35+01:00</time>
      </trkpt>
      <trkpt lat="43.56607" lon="3.71121">
        <ele>41</ele>
        <time>2023-11-23T11:00:06+01:00</time>
      </trkpt>
      <trkpt lat="43.56627" lon="3.71105">
        <ele>43</ele>
        <time>2023-11-23T11:01:06+01:00</time>
      </trkpt>
      <trkpt lat="43.56644" lon="3.71084">
        <ele>44</ele>
        <time>2023-11-23T11:01:34+01:00</time>
      </trkpt>
      <trkpt lat="43.56665" lon="3.7107">
        <ele>46</ele>
        <time>2023-11-23T11:02:01+01:00</time>
      </trkpt>
      <trkpt lat="43.56683" lon="3.71049">
        <ele>45</ele>
        <time>2023-11-23T11:02:29+01:00</time>
      </trkpt>
      <trkpt lat="43.56701" lon="3.71029">
        <ele>44</ele>
        <time>2023-11-23T11:02:54+01:00</time>
      </trkpt>
      <trkpt lat="43.56722" lon="3.71012">
        <ele>45</ele>
        <time>2023-11-23T11:03:18+01:00</time>
      </trkpt>
      <trkpt lat="43.56742" lon="3.70996">
        <ele>45</ele>
        <time>2023-11-23T11:03:41+01:00</time>
      </trkpt>
      <trkpt lat="43.56761" lon="3.70978">
        <ele>46</ele>
        <time>2023-11-23T11:04:03+01:00</time>
      </trkpt>
      <trkpt lat="43.56777" lon="3.70956">
        <ele>47</ele>
        <time>2023-11-23T11:04:27+01:00</time>
      </trkpt>
      <trkpt lat="43.56795" lon="3.70936">
        <ele>47</ele>
        <time>2023-11-23T11:04:52+01:00</time>
      </trkpt>
      <trkpt lat="43.56812" lon="3.70915">
        <ele>47</ele>
        <time>2023-11-23T11:05:17+01:00</time>
      </trkpt>
      <trkpt lat="43.5683" lon="3.70895">
        <ele>49</ele>
        <time>2023-11-23T11:05:42+01:00</time>
      </trkpt>
      <trkpt lat="43.56846" lon="3.70872">
        <ele>56</ele>
        <time>2023-11-23T11:06:33+01:00</time>
      </trkpt>
      <trkpt lat="43.56863" lon="3.7085">
        <ele>61</ele>
        <time>2023-11-23T11:06:57+01:00</time>
      </trkpt>
      <trkpt lat="43.56882" lon="3.70831">
        <ele>63</ele>
        <time>2023-11-23T11:07:21+01:00</time>
      </trkpt>
      <trkpt lat="43.569" lon="3.70811">
        <ele>64</ele>
        <time>2023-11-23T11:07:47+01:00</time>
      </trkpt>
      <trkpt lat="43.56921" lon="3.70795">
        <ele>63</ele>
        <time>2023-11-23T11:08:09+01:00</time>
      </trkpt>
      <trkpt lat="43.56942" lon="3.70784">
        <ele>60</ele>
        <time>2023-11-23T11:08:30+01:00</time>
      </trkpt>
      <trkpt lat="43.56961" lon="3.70765">
        <ele>59</ele>
        <time>2023-11-23T11:08:51+01:00</time>
      </trkpt>
      <trkpt lat="43.56979" lon="3.70748">
        <ele>57</ele>
        <time>2023-11-23T11:09:13+01:00</time>
      </trkpt>
      <trkpt lat="43.56998" lon="3.70729">
        <ele>56</ele>
        <time>2023-11-23T11:09:39+01:00</time>
      </trkpt>
      <trkpt lat="43.57016" lon="3.7071">
        <ele>56</ele>
        <time>2023-11-23T11:10:03+01:00</time>
      </trkpt>
      <trkpt lat="43.57053" lon="3.70673">
        <ele>60</ele>
        <time>2023-11-23T11:11:06+01:00</time>
      </trkpt>
      <trkpt lat="43.57071" lon="3.70656">
        <ele>59</ele>
        <time>2023-11-23T11:11:46+01:00</time>
      </trkpt>
      <trkpt lat="43.57089" lon="3.70636">
        <ele>60</ele>
        <time>2023-11-23T11:12:19+01:00</time>
      </trkpt>
      <trkpt lat="43.57108" lon="3.70579">
        <ele>68</ele>
        <time>2023-11-23T11:13:26+01:00</time>
      </trkpt>
      <trkpt lat="43.57115" lon="3.70549">
        <ele>73</ele>
        <time>2023-11-23T11:14:10+01:00</time>
      </trkpt>
      <trkpt lat="43.57135" lon="3.70493">
        <ele>78</ele>
        <time>2023-11-23T11:20:23+01:00</time>
      </trkpt>
      <trkpt lat="43.57137" lon="3.70431">
        <ele>87</ele>
        <time>2023-11-23T11:22:22+01:00</time>
      </trkpt>
      <trkpt lat="43.57123" lon="3.70407">
        <ele>86</ele>
        <time>2023-11-23T11:24:01+01:00</time>
      </trkpt>
      <trkpt lat="43.57109" lon="3.70381">
        <ele>85</ele>
        <time>2023-11-23T11:24:33+01:00</time>
      </trkpt>
      <trkpt lat="43.57097" lon="3.70355">
        <ele>80</ele>
        <time>2023-11-23T11:25:07+01:00</time>
      </trkpt>
      <trkpt lat="43.57082" lon="3.70331">
        <ele>72</ele>
        <time>2023-11-23T11:25:45+01:00</time>
      </trkpt>
      <trkpt lat="43.57068" lon="3.70307">
        <ele>65</ele>
        <time>2023-11-23T11:26:26+01:00</time>
      </trkpt>
      <trkpt lat="43.57054" lon="3.70282">
        <ele>62</ele>
        <time>2023-11-23T11:27:18+01:00</time>
      </trkpt>
      <trkpt lat="43.57067" lon="3.70308">
        <ele>71</ele>
        <time>2023-11-23T11:28:59+01:00</time>
      </trkpt>
      <trkpt lat="43.57081" lon="3.70333">
        <ele>78</ele>
        <time>2023-11-23T11:29:32+01:00</time>
      </trkpt>
      <trkpt lat="43.57097" lon="3.70356">
        <ele>84</ele>
        <time>2023-11-23T11:30:00+01:00</time>
      </trkpt>
      <trkpt lat="43.57111" lon="3.70381">
        <ele>88</ele>
        <time>2023-11-23T11:30:29+01:00</time>
      </trkpt>
      <trkpt lat="43.57125" lon="3.70406">
        <ele>92</ele>
        <time>2023-11-23T11:30:57+01:00</time>
      </trkpt>
      <trkpt lat="43.57143" lon="3.70388">
        <ele>91</ele>
        <time>2023-11-23T11:32:08+01:00</time>
      </trkpt>
      <trkpt lat="43.57155" lon="3.7036">
        <ele>90</ele>
        <time>2023-11-23T11:32:42+01:00</time>
      </trkpt>
      <trkpt lat="43.5716" lon="3.70329">
        <ele>92</ele>
        <time>2023-11-23T11:33:29+01:00</time>
      </trkpt>
      <trkpt lat="43.57173" lon="3.70303">
        <ele>89</ele>
        <time>2023-11-23T11:34:01+01:00</time>
      </trkpt>
      <trkpt lat="43.57191" lon="3.70284">
        <ele>85</ele>
        <time>2023-11-23T11:34:31+01:00</time>
      </trkpt>
      <trkpt lat="43.57203" lon="3.70257">
        <ele>81</ele>
        <time>2023-11-23T11:34:57+01:00</time>
      </trkpt>
      <trkpt lat="43.57212" lon="3.70228">
        <ele>80</ele>
        <time>2023-11-23T11:35:26+01:00</time>
      </trkpt>
      <trkpt lat="43.57225" lon="3.70203">
        <ele>81</ele>
        <time>2023-11-23T11:35:53+01:00</time>
      </trkpt>
      <trkpt lat="43.57246" lon="3.7019">
        <ele>83</ele>
        <time>2023-11-23T11:36:18+01:00</time>
      </trkpt>
      <trkpt lat="43.57265" lon="3.70173">
        <ele>88</ele>
        <time>2023-11-23T11:36:42+01:00</time>
      </trkpt>
      <trkpt lat="43.57279" lon="3.70148">
        <ele>93</ele>
        <time>2023-11-23T11:37:08+01:00</time>
      </trkpt>
      <trkpt lat="43.57293" lon="3.70123">
        <ele>104</ele>
        <time>2023-11-23T11:41:04+01:00</time>
      </trkpt>
      <trkpt lat="43.57312" lon="3.70106">
        <ele>105</ele>
        <time>2023-11-23T11:41:28+01:00</time>
      </trkpt>
      <trkpt lat="43.57336" lon="3.70101">
        <ele>105</ele>
        <time>2023-11-23T11:41:49+01:00</time>
      </trkpt>
      <trkpt lat="43.57357" lon="3.7009">
        <ele>104</ele>
        <time>2023-11-23T11:42:08+01:00</time>
      </trkpt>
      <trkpt lat="43.57378" lon="3.70075">
        <ele>105</ele>
        <time>2023-11-23T11:42:31+01:00</time>
      </trkpt>
      <trkpt lat="43.574" lon="3.70066">
        <ele>102</ele>
        <time>2023-11-23T11:42:51+01:00</time>
      </trkpt>
      <trkpt lat="43.57422" lon="3.70054">
        <ele>100</ele>
        <time>2023-11-23T11:43:12+01:00</time>
      </trkpt>
      <trkpt lat="43.57443" lon="3.70043">
        <ele>98</ele>
        <time>2023-11-23T11:43:34+01:00</time>
      </trkpt>
      <trkpt lat="43.57466" lon="3.70037">
        <ele>98</ele>
        <time>2023-11-23T11:43:57+01:00</time>
      </trkpt>
      <trkpt lat="43.57489" lon="3.7004">
        <ele>97</ele>
        <time>2023-11-23T11:44:15+01:00</time>
      </trkpt>
      <trkpt lat="43.57512" lon="3.70045">
        <ele>98</ele>
        <time>2023-11-23T11:44:34+01:00</time>
      </trkpt>
      <trkpt lat="43.57534" lon="3.70039">
        <ele>98</ele>
        <time>2023-11-23T11:44:56+01:00</time>
      </trkpt>
      <trkpt lat="43.57556" lon="3.70025">
        <ele>99</ele>
        <time>2023-11-23T11:45:21+01:00</time>
      </trkpt>
      <trkpt lat="43.57575" lon="3.70008">
        <ele>99</ele>
        <time>2023-11-23T11:45:42+01:00</time>
      </trkpt>
      <trkpt lat="43.57592" lon="3.69986">
        <ele>98</ele>
        <time>2023-11-23T11:46:06+01:00</time>
      </trkpt>
      <trkpt lat="43.57615" lon="3.69983">
        <ele>98</ele>
        <time>2023-11-23T11:46:24+01:00</time>
      </trkpt>
      <trkpt lat="43.57638" lon="3.6998">
        <ele>99</ele>
        <time>2023-11-23T11:46:43+01:00</time>
      </trkpt>
      <trkpt lat="43.57661" lon="3.69976">
        <ele>102</ele>
        <time>2023-11-23T11:47:09+01:00</time>
      </trkpt>
      <trkpt lat="43.57684" lon="3.69964">
        <ele>102</ele>
        <time>2023-11-23T11:47:37+01:00</time>
      </trkpt>
      <trkpt lat="43.57706" lon="3.69965">
        <ele>102</ele>
        <time>2023-11-23T11:48:01+01:00</time>
      </trkpt>
      <trkpt lat="43.5773" lon="3.69962">
        <ele>101</ele>
        <time>2023-11-23T11:48:23+01:00</time>
      </trkpt>
      <trkpt lat="43.57752" lon="3.69958">
        <ele>101</ele>
        <time>2023-11-23T11:48:47+01:00</time>
      </trkpt>
      <trkpt lat="43.57773" lon="3.69969">
        <ele>93</ele>
        <time>2023-11-23T11:53:15+01:00</time>
      </trkpt>
      <trkpt lat="43.57793" lon="3.69953">
        <ele>107</ele>
        <time>2023-11-23T12:16:19+01:00</time>
      </trkpt>
      <trkpt lat="43.57775" lon="3.69972">
        <ele>123</ele>
        <time>2023-11-23T12:28:27+01:00</time>
      </trkpt>
      <trkpt lat="43.57797" lon="3.69964">
        <ele>126</ele>
        <time>2023-11-23T12:30:25+01:00</time>
      </trkpt>
      <trkpt lat="43.57815" lon="3.69944">
        <ele>121</ele>
        <time>2023-11-23T12:46:11+01:00</time>
      </trkpt>
      <trkpt lat="43.57839" lon="3.6994">
        <ele>120</ele>
        <time>2023-11-23T12:46:46+01:00</time>
      </trkpt>
      <trkpt lat="43.57861" lon="3.69938">
        <ele>122</ele>
        <time>2023-11-23T12:47:12+01:00</time>
      </trkpt>
      <trkpt lat="43.57883" lon="3.69926">
        <ele>125</ele>
        <time>2023-11-23T12:47:44+01:00</time>
      </trkpt>
      <trkpt lat="43.57905" lon="3.6992">
        <ele>126</ele>
        <time>2023-11-23T12:48:23+01:00</time>
      </trkpt>
      <trkpt lat="43.57926" lon="3.69907">
        <ele>126</ele>
        <time>2023-11-23T12:48:48+01:00</time>
      </trkpt>
      <trkpt lat="43.57945" lon="3.69889">
        <ele>124</ele>
        <time>2023-11-23T12:49:12+01:00</time>
      </trkpt>
      <trkpt lat="43.57958" lon="3.69863">
        <ele>122</ele>
        <time>2023-11-23T12:49:34+01:00</time>
      </trkpt>
      <trkpt lat="43.57973" lon="3.69838">
        <ele>120</ele>
        <time>2023-11-23T12:50:00+01:00</time>
      </trkpt>
      <trkpt lat="43.57986" lon="3.69813">
        <ele>123</ele>
        <time>2023-11-23T12:50:22+01:00</time>
      </trkpt>
      <trkpt lat="43.58003" lon="3.69791">
        <ele>127</ele>
        <time>2023-11-23T12:50:46+01:00</time>
      </trkpt>
      <trkpt lat="43.58022" lon="3.69773">
        <ele>127</ele>
        <time>2023-11-23T12:51:11+01:00</time>
      </trkpt>
      <trkpt lat="43.58041" lon="3.69756">
        <ele>126</ele>
        <time>2023-11-23T12:52:00+01:00</time>
      </trkpt>
      <trkpt lat="43.58063" lon="3.69748">
        <ele>127</ele>
        <time>2023-11-23T12:52:27+01:00</time>
      </trkpt>
      <trkpt lat="43.58085" lon="3.69757">
        <ele>123</ele>
        <time>2023-11-23T12:52:58+01:00</time>
      </trkpt>
      <trkpt lat="43.58104" lon="3.69773">
        <ele>115</ele>
        <time>2023-11-23T12:53:36+01:00</time>
      </trkpt>
      <trkpt lat="43.58126" lon="3.69782">
        <ele>113</ele>
        <time>2023-11-23T12:54:21+01:00</time>
      </trkpt>
      <trkpt lat="43.5815" lon="3.69785">
        <ele>105</ele>
        <time>2023-11-23T12:55:25+01:00</time>
      </trkpt>
      <trkpt lat="43.58172" lon="3.69783">
        <ele>113</ele>
        <time>2023-11-23T12:56:11+01:00</time>
      </trkpt>
      <trkpt lat="43.58189" lon="3.69805">
        <ele>119</ele>
        <time>2023-11-23T12:57:02+01:00</time>
      </trkpt>
      <trkpt lat="43.58211" lon="3.69802">
        <ele>125</ele>
        <time>2023-11-23T12:57:35+01:00</time>
      </trkpt>
      <trkpt lat="43.58234" lon="3.69805">
        <ele>130</ele>
        <time>2023-11-23T12:58:08+01:00</time>
      </trkpt>
      <trkpt lat="43.58242" lon="3.69835">
        <ele>128</ele>
        <time>2023-11-23T12:59:23+01:00</time>
      </trkpt>
      <trkpt lat="43.5825" lon="3.69864">
        <ele>123</ele>
        <time>2023-11-23T12:59:49+01:00</time>
      </trkpt>
      <trkpt lat="43.58263" lon="3.69889">
        <ele>128</ele>
        <time>2023-11-23T13:00:30+01:00</time>
      </trkpt>
      <trkpt lat="43.58287" lon="3.69894">
        <ele>129</ele>
        <time>2023-11-23T13:00:59+01:00</time>
      </trkpt>
      <trkpt lat="43.58308" lon="3.69908">
        <ele>127</ele>
        <time>2023-11-23T13:01:24+01:00</time>
      </trkpt>
      <trkpt lat="43.58329" lon="3.69919">
        <ele>123</ele>
        <time>2023-11-23T13:01:51+01:00</time>
      </trkpt>
      <trkpt lat="43.58347" lon="3.69939">
        <ele>118</ele>
        <time>2023-11-23T13:02:24+01:00</time>
      </trkpt>
      <trkpt lat="43.58367" lon="3.69958">
        <ele>120</ele>
        <time>2023-11-23T13:02:48+01:00</time>
      </trkpt>
      <trkpt lat="43.5839" lon="3.69967">
        <ele>124</ele>
        <time>2023-11-23T13:03:11+01:00</time>
      </trkpt>
      <trkpt lat="43.58412" lon="3.69974">
        <ele>126</ele>
        <time>2023-11-23T13:03:35+01:00</time>
      </trkpt>
      <trkpt lat="43.58432" lon="3.69988">
        <ele>127</ele>
        <time>2023-11-23T13:04:03+01:00</time>
      </trkpt>
      <trkpt lat="43.58457" lon="3.69997">
        <ele>125</ele>
        <time>2023-11-23T13:10:35+01:00</time>
      </trkpt>
      <trkpt lat="43.58477" lon="3.70014">
        <ele>121</ele>
        <time>2023-11-23T13:11:15+01:00</time>
      </trkpt>
      <trkpt lat="43.58499" lon="3.70018">
        <ele>115</ele>
        <time>2023-11-23T13:11:44+01:00</time>
      </trkpt>
      <trkpt lat="43.58521" lon="3.70026">
        <ele>110</ele>
        <time>2023-11-23T13:12:17+01:00</time>
      </trkpt>
      <trkpt lat="43.58542" lon="3.70042">
        <ele>104</ele>
        <time>2023-11-23T13:12:49+01:00</time>
      </trkpt>
      <trkpt lat="43.58564" lon="3.70041">
        <ele>100</ele>
        <time>2023-11-23T13:13:18+01:00</time>
      </trkpt>
      <trkpt lat="43.58587" lon="3.70037">
        <ele>96</ele>
        <time>2023-11-23T13:13:51+01:00</time>
      </trkpt>
      <trkpt lat="43.5861" lon="3.70028">
        <ele>94</ele>
        <time>2023-11-23T13:14:24+01:00</time>
      </trkpt>
      <trkpt lat="43.58632" lon="3.70026">
        <ele>88</ele>
        <time>2023-11-23T13:15:16+01:00</time>
      </trkpt>
      <trkpt lat="43.58655" lon="3.7003">
        <ele>80</ele>
        <time>2023-11-23T13:15:56+01:00</time>
      </trkpt>
      <trkpt lat="43.58676" lon="3.70019">
        <ele>75</ele>
        <time>2023-11-23T13:16:32+01:00</time>
      </trkpt>
      <trkpt lat="43.58699" lon="3.70013">
        <ele>72</ele>
        <time>2023-11-23T13:17:05+01:00</time>
      </trkpt>
      <trkpt lat="43.58718" lon="3.69995">
        <ele>73</ele>
        <time>2023-11-23T13:17:55+01:00</time>
      </trkpt>
      <trkpt lat="43.58738" lon="3.69981">
        <ele>72</ele>
        <time>2023-11-23T13:18:26+01:00</time>
      </trkpt>
      <trkpt lat="43.58761" lon="3.69978">
        <ele>69</ele>
        <time>2023-11-23T13:19:09+01:00</time>
      </trkpt>
      <trkpt lat="43.58786" lon="3.69968">
        <ele>65</ele>
        <time>2023-11-23T13:20:21+01:00</time>
      </trkpt>
      <trkpt lat="43.58807" lon="3.69954">
        <ele>68</ele>
        <time>2023-11-23T13:21:16+01:00</time>
      </trkpt>
      <trkpt lat="43.5883" lon="3.69952">
        <ele>75</ele>
        <time>2023-11-23T13:22:14+01:00</time>
      </trkpt>
      <trkpt lat="43.58848" lon="3.69933">
        <ele>72</ele>
        <time>2023-11-23T13:22:55+01:00</time>
      </trkpt>
      <trkpt lat="43.58868" lon="3.69916">
        <ele>73</ele>
        <time>2023-11-23T13:23:33+01:00</time>
      </trkpt>
      <trkpt lat="43.58885" lon="3.69895">
        <ele>77</ele>
        <time>2023-11-23T13:24:04+01:00</time>
      </trkpt>
      <trkpt lat="43.58895" lon="3.69866">
        <ele>89</ele>
        <time>2023-11-23T13:34:20+01:00</time>
      </trkpt>
      <trkpt lat="43.58908" lon="3.6984">
        <ele>90</ele>
        <time>2023-11-23T13:34:43+01:00</time>
      </trkpt>
      <trkpt lat="43.5893" lon="3.69833">
        <ele>90</ele>
        <time>2023-11-23T13:35:03+01:00</time>
      </trkpt>
      <trkpt lat="43.58945" lon="3.69857">
        <ele>93</ele>
        <time>2023-11-23T13:35:37+01:00</time>
      </trkpt>
      <trkpt lat="43.58954" lon="3.69886">
        <ele>97</ele>
        <time>2023-11-23T13:36:05+01:00</time>
      </trkpt>
      <trkpt lat="43.58977" lon="3.69884">
        <ele>97</ele>
        <time>2023-11-23T13:36:30+01:00</time>
      </trkpt>
      <trkpt lat="43.58999" lon="3.69879">
        <ele>97</ele>
        <time>2023-11-23T13:37:04+01:00</time>
      </trkpt>
      <trkpt lat="43.59001" lon="3.6991">
        <ele>96</ele>
        <time>2023-11-23T13:37:35+01:00</time>
      </trkpt>
      <trkpt lat="43.58998" lon="3.69942">
        <ele>108</ele>
        <time>2023-11-23T13:41:22+01:00</time>
      </trkpt>
      <trkpt lat="43.59008" lon="3.6997">
        <ele>106</ele>
        <time>2023-11-23T13:41:58+01:00</time>
      </trkpt>
      <trkpt lat="43.59022" lon="3.69994">
        <ele>108</ele>
        <time>2023-11-23T13:42:27+01:00</time>
      </trkpt>
      <trkpt lat="43.59041" lon="3.70011">
        <ele>109</ele>
        <time>2023-11-23T13:42:55+01:00</time>
      </trkpt>
      <trkpt lat="43.59061" lon="3.70028">
        <ele>110</ele>
        <time>2023-11-23T13:43:20+01:00</time>
      </trkpt>
      <trkpt lat="43.59077" lon="3.70051">
        <ele>110</ele>
        <time>2023-11-23T13:43:52+01:00</time>
      </trkpt>
      <trkpt lat="43.59095" lon="3.70072">
        <ele>109</ele>
        <time>2023-11-23T13:44:21+01:00</time>
      </trkpt>
      <trkpt lat="43.59105" lon="3.70102">
        <ele>109</ele>
        <time>2023-11-23T13:44:50+01:00</time>
      </trkpt>
      <trkpt lat="43.59115" lon="3.7013">
        <ele>113</ele>
        <time>2023-11-23T13:45:17+01:00</time>
      </trkpt>
      <trkpt lat="43.5913" lon="3.70154">
        <ele>122</ele>
        <time>2023-11-23T13:47:58+01:00</time>
      </trkpt>
      <trkpt lat="43.59142" lon="3.70181">
        <ele>126</ele>
        <time>2023-11-23T13:48:21+01:00</time>
      </trkpt>
      <trkpt lat="43.59159" lon="3.70203">
        <ele>132</ele>
        <time>2023-11-23T13:48:43+01:00</time>
      </trkpt>
      <trkpt lat="43.5918" lon="3.70216">
        <ele>135</ele>
        <time>2023-11-23T13:49:02+01:00</time>
      </trkpt>
      <trkpt lat="43.592" lon="3.70229">
        <ele>136</ele>
        <time>2023-11-23T13:49:22+01:00</time>
      </trkpt>
      <trkpt lat="43.59221" lon="3.70242">
        <ele>130</ele>
        <time>2023-11-23T13:50:36+01:00</time>
      </trkpt>
      <trkpt lat="43.59244" lon="3.70243">
        <ele>124</ele>
        <time>2023-11-23T13:51:02+01:00</time>
      </trkpt>
      <trkpt lat="43.59267" lon="3.70251">
        <ele>120</ele>
        <time>2023-11-23T13:51:27+01:00</time>
      </trkpt>
      <trkpt lat="43.59283" lon="3.70271">
        <ele>121</ele>
        <time>2023-11-23T13:51:46+01:00</time>
      </trkpt>
      <trkpt lat="43.59303" lon="3.7029">
        <ele>121</ele>
        <time>2023-11-23T13:52:15+01:00</time>
      </trkpt>
      <trkpt lat="43.59323" lon="3.70309">
        <ele>121</ele>
        <time>2023-11-23T13:52:41+01:00</time>
      </trkpt>
      <trkpt lat="43.59344" lon="3.70319">
        <ele>122</ele>
        <time>2023-11-23T13:53:02+01:00</time>
      </trkpt>
      <trkpt lat="43.59366" lon="3.70329">
        <ele>123</ele>
        <time>2023-11-23T13:53:24+01:00</time>
      </trkpt>
      <trkpt lat="43.59388" lon="3.70338">
        <ele>124</ele>
        <time>2023-11-23T13:53:43+01:00</time>
      </trkpt>
      <trkpt lat="43.5941" lon="3.70343">
        <ele>127</ele>
        <time>2023-11-23T13:54:08+01:00</time>
      </trkpt>
      <trkpt lat="43.59432" lon="3.70351">
        <ele>130</ele>
        <time>2023-11-23T13:54:27+01:00</time>
      </trkpt>
      <trkpt lat="43.59454" lon="3.70362">
        <ele>132</ele>
        <time>2023-11-23T13:54:47+01:00</time>
      </trkpt>
      <trkpt lat="43.59459" lon="3.70393">
        <ele>135</ele>
        <time>2023-11-23T13:55:15+01:00</time>
      </trkpt>
      <trkpt lat="43.59458" lon="3.70424">
        <ele>135</ele>
        <time>2023-11-23T13:55:42+01:00</time>
      </trkpt>
      <trkpt lat="43.59458" lon="3.70455">
        <ele>135</ele>
        <time>2023-11-23T13:56:05+01:00</time>
      </trkpt>
      <trkpt lat="43.59453" lon="3.70485">
        <ele>134</ele>
        <time>2023-11-23T13:56:29+01:00</time>
      </trkpt>
      <trkpt lat="43.59449" lon="3.70517">
        <ele>132</ele>
        <time>2023-11-23T13:56:55+01:00</time>
      </trkpt>
      <trkpt lat="43.59446" lon="3.70549">
        <ele>140</ele>
        <time>2023-11-23T13:57:50+01:00</time>
      </trkpt>
      <trkpt lat="43.59426" lon="3.70565">
        <ele>134</ele>
        <time>2023-11-23T14:02:40+01:00</time>
      </trkpt>
      <trkpt lat="43.59413" lon="3.70591">
        <ele>134</ele>
        <time>2023-11-23T14:03:12+01:00</time>
      </trkpt>
      <trkpt lat="43.59409" lon="3.70621">
        <ele>135</ele>
        <time>2023-11-23T14:03:35+01:00</time>
      </trkpt>
      <trkpt lat="43.59398" lon="3.70651">
        <ele>134</ele>
        <time>2023-11-23T14:03:58+01:00</time>
      </trkpt>
      <trkpt lat="43.59378" lon="3.70665">
        <ele>133</ele>
        <time>2023-11-23T14:04:24+01:00</time>
      </trkpt>
      <trkpt lat="43.59355" lon="3.70653">
        <ele>131</ele>
        <time>2023-11-23T14:04:57+01:00</time>
      </trkpt>
      <trkpt lat="43.59333" lon="3.70643">
        <ele>129</ele>
        <time>2023-11-23T14:05:20+01:00</time>
      </trkpt>
      <trkpt lat="43.59313" lon="3.70629">
        <ele>128</ele>
        <time>2023-11-23T14:05:41+01:00</time>
      </trkpt>
      <trkpt lat="43.59295" lon="3.70611">
        <ele>126</ele>
        <time>2023-11-23T14:06:01+01:00</time>
      </trkpt>
      <trkpt lat="43.59275" lon="3.70593">
        <ele>125</ele>
        <time>2023-11-23T14:06:22+01:00</time>
      </trkpt>
      <trkpt lat="43.59255" lon="3.70578">
        <ele>125</ele>
        <time>2023-11-23T14:06:41+01:00</time>
      </trkpt>
      <trkpt lat="43.59235" lon="3.70563">
        <ele>125</ele>
        <time>2023-11-23T14:07:04+01:00</time>
      </trkpt>
      <trkpt lat="43.59214" lon="3.70549">
        <ele>125</ele>
        <time>2023-11-23T14:07:24+01:00</time>
      </trkpt>
      <trkpt lat="43.59195" lon="3.70533">
        <ele>124</ele>
        <time>2023-11-23T14:07:43+01:00</time>
      </trkpt>
      <trkpt lat="43.59174" lon="3.7052">
        <ele>125</ele>
        <time>2023-11-23T14:08:06+01:00</time>
      </trkpt>
      <trkpt lat="43.5915" lon="3.70525">
        <ele>127</ele>
        <time>2023-11-23T14:08:27+01:00</time>
      </trkpt>
      <trkpt lat="43.5913" lon="3.70541">
        <ele>129</ele>
        <time>2023-11-23T14:08:52+01:00</time>
      </trkpt>
      <trkpt lat="43.59109" lon="3.70553">
        <ele>131</ele>
        <time>2023-11-23T14:09:15+01:00</time>
      </trkpt>
      <trkpt lat="43.59093" lon="3.70576">
        <ele>134</ele>
        <time>2023-11-23T14:09:35+01:00</time>
      </trkpt>
      <trkpt lat="43.59085" lon="3.70605">
        <ele>133</ele>
        <time>2023-11-23T14:09:56+01:00</time>
      </trkpt>
      <trkpt lat="43.59082" lon="3.70636">
        <ele>128</ele>
        <time>2023-11-23T14:10:21+01:00</time>
      </trkpt>
      <trkpt lat="43.59089" lon="3.70667">
        <ele>129</ele>
        <time>2023-11-23T14:10:42+01:00</time>
      </trkpt>
      <trkpt lat="43.59093" lon="3.70698">
        <ele>128</ele>
        <time>2023-11-23T14:11:06+01:00</time>
      </trkpt>
      <trkpt lat="43.59094" lon="3.70731">
        <ele>126</ele>
        <time>2023-11-23T14:11:31+01:00</time>
      </trkpt>
      <trkpt lat="43.591" lon="3.70762">
        <ele>126</ele>
        <time>2023-11-23T14:11:55+01:00</time>
      </trkpt>
      <trkpt lat="43.59112" lon="3.70789">
        <ele>125</ele>
        <time>2023-11-23T14:12:17+01:00</time>
      </trkpt>
      <trkpt lat="43.59126" lon="3.70815">
        <ele>122</ele>
        <time>2023-11-23T14:12:39+01:00</time>
      </trkpt>
      <trkpt lat="43.59142" lon="3.70836">
        <ele>119</ele>
        <time>2023-11-23T14:13:03+01:00</time>
      </trkpt>
      <trkpt lat="43.59164" lon="3.70846">
        <ele>115</ele>
        <time>2023-11-23T14:13:27+01:00</time>
      </trkpt>
      <trkpt lat="43.59186" lon="3.7084">
        <ele>110</ele>
        <time>2023-11-23T14:13:55+01:00</time>
      </trkpt>
      <trkpt lat="43.59208" lon="3.70832">
        <ele>107</ele>
        <time>2023-11-23T14:14:17+01:00</time>
      </trkpt>
      <trkpt lat="43.59229" lon="3.70845">
        <ele>108</ele>
        <time>2023-11-23T14:14:46+01:00</time>
      </trkpt>
      <trkpt lat="43.59216" lon="3.70871">
        <ele>109</ele>
        <time>2023-11-23T14:15:12+01:00</time>
      </trkpt>
      <trkpt lat="43.592" lon="3.70893">
        <ele>111</ele>
        <time>2023-11-23T14:15:42+01:00</time>
      </trkpt>
      <trkpt lat="43.59182" lon="3.70915">
        <ele>114</ele>
        <time>2023-11-23T14:16:20+01:00</time>
      </trkpt>
      <trkpt lat="43.59164" lon="3.70933">
        <ele>113</ele>
        <time>2023-11-23T14:16:43+01:00</time>
      </trkpt>
      <trkpt lat="43.59144" lon="3.70949">
        <ele>110</ele>
        <time>2023-11-23T14:17:10+01:00</time>
      </trkpt>
      <trkpt lat="43.59123" lon="3.70963">
        <ele>112</ele>
        <time>2023-11-23T14:17:37+01:00</time>
      </trkpt>
      <trkpt lat="43.59108" lon="3.70986">
        <ele>112</ele>
        <time>2023-11-23T14:18:03+01:00</time>
      </trkpt>
      <trkpt lat="43.59091" lon="3.71007">
        <ele>112</ele>
        <time>2023-11-23T14:18:32+01:00</time>
      </trkpt>
      <trkpt lat="43.59069" lon="3.70997">
        <ele>110</ele>
        <time>2023-11-23T14:19:04+01:00</time>
      </trkpt>
      <trkpt lat="43.59046" lon="3.70997">
        <ele>108</ele>
        <time>2023-11-23T14:19:33+01:00</time>
      </trkpt>
      <trkpt lat="43.59023" lon="3.70996">
        <ele>110</ele>
        <time>2023-11-23T14:20:06+01:00</time>
      </trkpt>
      <trkpt lat="43.59001" lon="3.70989">
        <ele>113</ele>
        <time>2023-11-23T14:20:33+01:00</time>
      </trkpt>
      <trkpt lat="43.58987" lon="3.70964">
        <ele>119</ele>
        <time>2023-11-23T14:21:20+01:00</time>
      </trkpt>
      <trkpt lat="43.58979" lon="3.70935">
        <ele>121</ele>
        <time>2023-11-23T14:21:45+01:00</time>
      </trkpt>
      <trkpt lat="43.58971" lon="3.70905">
        <ele>118</ele>
        <time>2023-11-23T14:22:08+01:00</time>
      </trkpt>
      <trkpt lat="43.58963" lon="3.70875">
        <ele>116</ele>
        <time>2023-11-23T14:22:32+01:00</time>
      </trkpt>
      <trkpt lat="43.58951" lon="3.70848">
        <ele>119</ele>
        <time>2023-11-23T14:22:54+01:00</time>
      </trkpt>
      <trkpt lat="43.58942" lon="3.70819">
        <ele>118</ele>
        <time>2023-11-23T14:23:20+01:00</time>
      </trkpt>
      <trkpt lat="43.58938" lon="3.70787">
        <ele>118</ele>
        <time>2023-11-23T14:23:48+01:00</time>
      </trkpt>
      <trkpt lat="43.58933" lon="3.70756">
        <ele>119</ele>
        <time>2023-11-23T14:24:13+01:00</time>
      </trkpt>
      <trkpt lat="43.58919" lon="3.70731">
        <ele>121</ele>
        <time>2023-11-23T14:24:37+01:00</time>
      </trkpt>
      <trkpt lat="43.58902" lon="3.70709">
        <ele>123</ele>
        <time>2023-11-23T14:25:05+01:00</time>
      </trkpt>
      <trkpt lat="43.58884" lon="3.70691">
        <ele>128</ele>
        <time>2023-11-23T14:27:51+01:00</time>
      </trkpt>
      <trkpt lat="43.58865" lon="3.70671">
        <ele>127</ele>
        <time>2023-11-23T14:28:16+01:00</time>
      </trkpt>
      <trkpt lat="43.58844" lon="3.70656">
        <ele>129</ele>
        <time>2023-11-23T14:28:40+01:00</time>
      </trkpt>
      <trkpt lat="43.58824" lon="3.70643">
        <ele>128</ele>
        <time>2023-11-23T14:29:02+01:00</time>
      </trkpt>
      <trkpt lat="43.58803" lon="3.70628">
        <ele>126</ele>
        <time>2023-11-23T14:29:26+01:00</time>
      </trkpt>
      <trkpt lat="43.58785" lon="3.70609">
        <ele>127</ele>
        <time>2023-11-23T14:29:48+01:00</time>
      </trkpt>
      <trkpt lat="43.58768" lon="3.70589">
        <ele>125</ele>
        <time>2023-11-23T14:30:12+01:00</time>
      </trkpt>
      <trkpt lat="43.58748" lon="3.70573">
        <ele>126</ele>
        <time>2023-11-23T14:30:32+01:00</time>
      </trkpt>
      <trkpt lat="43.5873" lon="3.70553">
        <ele>125</ele>
        <time>2023-11-23T14:30:54+01:00</time>
      </trkpt>
      <trkpt lat="43.58708" lon="3.70541">
        <ele>124</ele>
        <time>2023-11-23T14:31:16+01:00</time>
      </trkpt>
      <trkpt lat="43.58688" lon="3.70527">
        <ele>126</ele>
        <time>2023-11-23T14:31:37+01:00</time>
      </trkpt>
      <trkpt lat="43.58668" lon="3.70513">
        <ele>127</ele>
        <time>2023-11-23T14:31:58+01:00</time>
      </trkpt>
      <trkpt lat="43.58648" lon="3.70496">
        <ele>129</ele>
        <time>2023-11-23T14:32:20+01:00</time>
      </trkpt>
      <trkpt lat="43.58632" lon="3.70518">
        <ele>133</ele>
        <time>2023-11-23T14:32:46+01:00</time>
      </trkpt>
      <trkpt lat="43.58627" lon="3.70549">
        <ele>135</ele>
        <time>2023-11-23T14:33:08+01:00</time>
      </trkpt>
      <trkpt lat="43.58619" lon="3.70578">
        <ele>133</ele>
        <time>2023-11-23T14:33:33+01:00</time>
      </trkpt>
      <trkpt lat="43.58612" lon="3.70608">
        <ele>132</ele>
        <time>2023-11-23T14:33:53+01:00</time>
      </trkpt>
      <trkpt lat="43.58609" lon="3.7064">
        <ele>134</ele>
        <time>2023-11-23T14:34:17+01:00</time>
      </trkpt>
      <trkpt lat="43.5861" lon="3.70672">
        <ele>137</ele>
        <time>2023-11-23T14:34:40+01:00</time>
      </trkpt>
      <trkpt lat="43.58611" lon="3.70703">
        <ele>139</ele>
        <time>2023-11-23T14:35:00+01:00</time>
      </trkpt>
      <trkpt lat="43.58611" lon="3.70734">
        <ele>129</ele>
        <time>2023-11-23T14:35:23+01:00</time>
      </trkpt>
      <trkpt lat="43.58609" lon="3.70766">
        <ele>126</ele>
        <time>2023-11-23T14:36:00+01:00</time>
      </trkpt>
      <trkpt lat="43.58604" lon="3.70797">
        <ele>126</ele>
        <time>2023-11-23T14:37:18+01:00</time>
      </trkpt>
      <trkpt lat="43.58602" lon="3.70829">
        <ele>127</ele>
        <time>2023-11-23T14:37:43+01:00</time>
      </trkpt>
      <trkpt lat="43.58603" lon="3.7086">
        <ele>126</ele>
        <time>2023-11-23T14:38:04+01:00</time>
      </trkpt>
      <trkpt lat="43.586" lon="3.70892">
        <ele>125</ele>
        <time>2023-11-23T14:38:25+01:00</time>
      </trkpt>
      <trkpt lat="43.58601" lon="3.70923">
        <ele>125</ele>
        <time>2023-11-23T14:38:47+01:00</time>
      </trkpt>
      <trkpt lat="43.586" lon="3.70954">
        <ele>124</ele>
        <time>2023-11-23T14:39:12+01:00</time>
      </trkpt>
      <trkpt lat="43.58601" lon="3.70986">
        <ele>122</ele>
        <time>2023-11-23T14:39:33+01:00</time>
      </trkpt>
      <trkpt lat="43.58603" lon="3.71018">
        <ele>122</ele>
        <time>2023-11-23T14:39:54+01:00</time>
      </trkpt>
      <trkpt lat="43.58602" lon="3.71049">
        <ele>119</ele>
        <time>2023-11-23T14:40:19+01:00</time>
      </trkpt>
      <trkpt lat="43.586" lon="3.71081">
        <ele>120</ele>
        <time>2023-11-23T14:40:45+01:00</time>
      </trkpt>
      <trkpt lat="43.58599" lon="3.71114">
        <ele>123</ele>
        <time>2023-11-23T14:41:06+01:00</time>
      </trkpt>
      <trkpt lat="43.58598" lon="3.71145">
        <ele>123</ele>
        <time>2023-11-23T14:41:27+01:00</time>
      </trkpt>
      <trkpt lat="43.58599" lon="3.71177">
        <ele>126</ele>
        <time>2023-11-23T14:41:49+01:00</time>
      </trkpt>
      <trkpt lat="43.586" lon="3.71209">
        <ele>125</ele>
        <time>2023-11-23T14:42:10+01:00</time>
      </trkpt>
      <trkpt lat="43.58586" lon="3.71234">
        <ele>125</ele>
        <time>2023-11-23T14:42:34+01:00</time>
      </trkpt>
      <trkpt lat="43.58564" lon="3.71239">
        <ele>124</ele>
        <time>2023-11-23T14:42:58+01:00</time>
      </trkpt>
      <trkpt lat="43.58541" lon="3.71245">
        <ele>125</ele>
        <time>2023-11-23T14:43:33+01:00</time>
      </trkpt>
      <trkpt lat="43.58519" lon="3.71251">
        <ele>119</ele>
        <time>2023-11-23T14:44:03+01:00</time>
      </trkpt>
      <trkpt lat="43.58498" lon="3.71265">
        <ele>114</ele>
        <time>2023-11-23T14:44:25+01:00</time>
      </trkpt>
      <trkpt lat="43.58478" lon="3.71279">
        <ele>111</ele>
        <time>2023-11-23T14:44:50+01:00</time>
      </trkpt>
      <trkpt lat="43.58456" lon="3.71284">
        <ele>116</ele>
        <time>2023-11-23T14:45:13+01:00</time>
      </trkpt>
      <trkpt lat="43.58432" lon="3.71289">
        <ele>119</ele>
        <time>2023-11-23T14:45:37+01:00</time>
      </trkpt>
      <trkpt lat="43.5841" lon="3.7129">
        <ele>119</ele>
        <time>2023-11-23T14:46:00+01:00</time>
      </trkpt>
      <trkpt lat="43.58387" lon="3.7129">
        <ele>117</ele>
        <time>2023-11-23T14:46:23+01:00</time>
      </trkpt>
      <trkpt lat="43.58365" lon="3.71298">
        <ele>110</ele>
        <time>2023-11-23T14:46:48+01:00</time>
      </trkpt>
      <trkpt lat="43.58342" lon="3.71299">
        <ele>105</ele>
        <time>2023-11-23T14:47:11+01:00</time>
      </trkpt>
      <trkpt lat="43.58319" lon="3.713">
        <ele>115</ele>
        <time>2023-11-23T14:47:48+01:00</time>
      </trkpt>
      <trkpt lat="43.58296" lon="3.71302">
        <ele>118</ele>
        <time>2023-11-23T14:48:09+01:00</time>
      </trkpt>
      <trkpt lat="43.58281" lon="3.71326">
        <ele>119</ele>
        <time>2023-11-23T14:48:35+01:00</time>
      </trkpt>
      <trkpt lat="43.5826" lon="3.7134">
        <ele>119</ele>
        <time>2023-11-23T14:48:59+01:00</time>
      </trkpt>
      <trkpt lat="43.58241" lon="3.71358">
        <ele>120</ele>
        <time>2023-11-23T14:49:26+01:00</time>
      </trkpt>
      <trkpt lat="43.58218" lon="3.7136">
        <ele>118</ele>
        <time>2023-11-23T14:49:52+01:00</time>
      </trkpt>
      <trkpt lat="43.58198" lon="3.71376">
        <ele>118</ele>
        <time>2023-11-23T14:50:20+01:00</time>
      </trkpt>
      <trkpt lat="43.58177" lon="3.71391">
        <ele>119</ele>
        <time>2023-11-23T14:50:44+01:00</time>
      </trkpt>
      <trkpt lat="43.58155" lon="3.71396">
        <ele>120</ele>
        <time>2023-11-23T14:51:05+01:00</time>
      </trkpt>
      <trkpt lat="43.58134" lon="3.71409">
        <ele>122</ele>
        <time>2023-11-23T14:51:33+01:00</time>
      </trkpt>
      <trkpt lat="43.58113" lon="3.71422">
        <ele>124</ele>
        <time>2023-11-23T14:52:00+01:00</time>
      </trkpt>
      <trkpt lat="43.58094" lon="3.71439">
        <ele>125</ele>
        <time>2023-11-23T14:52:22+01:00</time>
      </trkpt>
      <trkpt lat="43.5807" lon="3.7144">
        <ele>123</ele>
        <time>2023-11-23T14:53:59+01:00</time>
      </trkpt>
      <trkpt lat="43.58051" lon="3.71458">
        <ele>122</ele>
        <time>2023-11-23T14:54:59+01:00</time>
      </trkpt>
      <trkpt lat="43.58032" lon="3.71475">
        <ele>125</ele>
        <time>2023-11-23T14:55:43+01:00</time>
      </trkpt>
      <trkpt lat="43.58013" lon="3.71493">
        <ele>124</ele>
        <time>2023-11-23T14:56:10+01:00</time>
      </trkpt>
      <trkpt lat="43.57996" lon="3.71513">
        <ele>125</ele>
        <time>2023-11-23T14:56:34+01:00</time>
      </trkpt>
      <trkpt lat="43.57975" lon="3.71526">
        <ele>126</ele>
        <time>2023-11-23T14:57:00+01:00</time>
      </trkpt>
      <trkpt lat="43.57956" lon="3.71544">
        <ele>128</ele>
        <time>2023-11-23T14:57:24+01:00</time>
      </trkpt>
      <trkpt lat="43.57938" lon="3.71563">
        <ele>123</ele>
        <time>2023-11-23T14:57:48+01:00</time>
      </trkpt>
      <trkpt lat="43.5792" lon="3.71582">
        <ele>127</ele>
        <time>2023-11-23T14:58:10+01:00</time>
      </trkpt>
      <trkpt lat="43.579" lon="3.71598">
        <ele>130</ele>
        <time>2023-11-23T14:58:33+01:00</time>
      </trkpt>
      <trkpt lat="43.5788" lon="3.71613">
        <ele>128</ele>
        <time>2023-11-23T14:58:53+01:00</time>
      </trkpt>
      <trkpt lat="43.57865" lon="3.71637">
        <ele>126</ele>
        <time>2023-11-23T14:59:24+01:00</time>
      </trkpt>
      <trkpt lat="43.57844" lon="3.71648">
        <ele>126</ele>
        <time>2023-11-23T15:00:31+01:00</time>
      </trkpt>
      <trkpt lat="43.57823" lon="3.71662">
        <ele>128</ele>
        <time>2023-11-23T15:01:37+01:00</time>
      </trkpt>
      <trkpt lat="43.578" lon="3.71665">
        <ele>128</ele>
        <time>2023-11-23T15:01:59+01:00</time>
      </trkpt>
      <trkpt lat="43.57779" lon="3.71676">
        <ele>130</ele>
        <time>2023-11-23T15:02:21+01:00</time>
      </trkpt>
      <trkpt lat="43.57756" lon="3.71673">
        <ele>128</ele>
        <time>2023-11-23T15:02:43+01:00</time>
      </trkpt>
      <trkpt lat="43.57733" lon="3.71681">
        <ele>129</ele>
        <time>2023-11-23T15:03:07+01:00</time>
      </trkpt>
      <trkpt lat="43.57711" lon="3.71681">
        <ele>127</ele>
        <time>2023-11-23T15:03:58+01:00</time>
      </trkpt>
      <trkpt lat="43.57689" lon="3.7169">
        <ele>122</ele>
        <time>2023-11-23T15:11:06+01:00</time>
      </trkpt>
      <trkpt lat="43.57667" lon="3.71701">
        <ele>120</ele>
        <time>2023-11-23T15:11:32+01:00</time>
      </trkpt>
      <trkpt lat="43.57649" lon="3.7172">
        <ele>115</ele>
        <time>2023-11-23T15:11:58+01:00</time>
      </trkpt>
      <trkpt lat="43.57633" lon="3.71742">
        <ele>112</ele>
        <time>2023-11-23T15:12:21+01:00</time>
      </trkpt>
      <trkpt lat="43.57614" lon="3.7176">
        <ele>110</ele>
        <time>2023-11-23T15:12:44+01:00</time>
      </trkpt>
      <trkpt lat="43.57592" lon="3.71767">
        <ele>107</ele>
        <time>2023-11-23T15:13:06+01:00</time>
      </trkpt>
      <trkpt lat="43.57569" lon="3.71761">
        <ele>107</ele>
        <time>2023-11-23T15:13:27+01:00</time>
      </trkpt>
      <trkpt lat="43.57548" lon="3.71775">
        <ele>103</ele>
        <time>2023-11-23T15:13:53+01:00</time>
      </trkpt>
      <trkpt lat="43.57528" lon="3.7179">
        <ele>103</ele>
        <time>2023-11-23T15:14:19+01:00</time>
      </trkpt>
      <trkpt lat="43.57507" lon="3.71802">
        <ele>103</ele>
        <time>2023-11-23T15:14:42+01:00</time>
      </trkpt>
      <trkpt lat="43.57485" lon="3.71811">
        <ele>105</ele>
        <time>2023-11-23T15:15:05+01:00</time>
      </trkpt>
      <trkpt lat="43.57467" lon="3.7183">
        <ele>106</ele>
        <time>2023-11-23T15:15:29+01:00</time>
      </trkpt>
      <trkpt lat="43.57447" lon="3.71846">
        <ele>105</ele>
        <time>2023-11-23T15:15:53+01:00</time>
      </trkpt>
      <trkpt lat="43.5743" lon="3.71866">
        <ele>104</ele>
        <time>2023-11-23T15:16:15+01:00</time>
      </trkpt>
      <trkpt lat="43.57411" lon="3.71886">
        <ele>104</ele>
        <time>2023-11-23T15:16:37+01:00</time>
      </trkpt>
      <trkpt lat="43.5739" lon="3.71875">
        <ele>102</ele>
        <time>2023-11-23T15:17:08+01:00</time>
      </trkpt>
      <trkpt lat="43.57369" lon="3.71888">
        <ele>102</ele>
        <time>2023-11-23T15:17:30+01:00</time>
      </trkpt>
      <trkpt lat="43.5735" lon="3.71906">
        <ele>100</ele>
        <time>2023-11-23T15:17:49+01:00</time>
      </trkpt>
      <trkpt lat="43.57329" lon="3.7192">
        <ele>101</ele>
        <time>2023-11-23T15:18:12+01:00</time>
      </trkpt>
      <trkpt lat="43.57308" lon="3.71932">
        <ele>102</ele>
        <time>2023-11-23T15:18:35+01:00</time>
      </trkpt>
      <trkpt lat="43.57291" lon="3.71953">
        <ele>100</ele>
        <time>2023-11-23T15:18:55+01:00</time>
      </trkpt>
      <trkpt lat="43.5727" lon="3.71967">
        <ele>97</ele>
        <time>2023-11-23T15:19:13+01:00</time>
      </trkpt>
      <trkpt lat="43.57248" lon="3.71977">
        <ele>95</ele>
        <time>2023-11-23T15:19:35+01:00</time>
      </trkpt>
      <trkpt lat="43.57225" lon="3.71984">
        <ele>93</ele>
        <time>2023-11-23T15:19:58+01:00</time>
      </trkpt>
      <trkpt lat="43.57204" lon="3.71999">
        <ele>93</ele>
        <time>2023-11-23T15:20:22+01:00</time>
      </trkpt>
      <trkpt lat="43.57184" lon="3.72012">
        <ele>96</ele>
        <time>2023-11-23T15:20:46+01:00</time>
      </trkpt>
      <trkpt lat="43.57165" lon="3.72032">
        <ele>96</ele>
        <time>2023-11-23T15:21:06+01:00</time>
      </trkpt>
      <trkpt lat="43.57144" lon="3.72047">
        <ele>95</ele>
        <time>2023-11-23T15:21:25+01:00</time>
      </trkpt>
      <trkpt lat="43.57123" lon="3.72055">
        <ele>95</ele>
        <time>2023-11-23T15:21:48+01:00</time>
      </trkpt>
      <trkpt lat="43.571" lon="3.72063">
        <ele>97</ele>
        <time>2023-11-23T15:22:11+01:00</time>
      </trkpt>
      <trkpt lat="43.57078" lon="3.72068">
        <ele>97</ele>
        <time>2023-11-23T15:22:30+01:00</time>
      </trkpt>
      <trkpt lat="43.57056" lon="3.72082">
        <ele>97</ele>
        <time>2023-11-23T15:22:51+01:00</time>
      </trkpt>
      <trkpt lat="43.57035" lon="3.72095">
        <ele>93</ele>
        <time>2023-11-23T15:23:12+01:00</time>
      </trkpt>
      <trkpt lat="43.57012" lon="3.721">
        <ele>91</ele>
        <time>2023-11-23T15:23:30+01:00</time>
      </trkpt>
      <trkpt lat="43.5699" lon="3.7209">
        <ele>92</ele>
        <time>2023-11-23T15:23:49+01:00</time>
      </trkpt>
      <trkpt lat="43.56968" lon="3.7208">
        <ele>94</ele>
        <time>2023-11-23T15:24:10+01:00</time>
      </trkpt>
      <trkpt lat="43.56946" lon="3.72074">
        <ele>94</ele>
        <time>2023-11-23T15:24:31+01:00</time>
      </trkpt>
      <trkpt lat="43.56923" lon="3.72072">
        <ele>94</ele>
        <time>2023-11-23T15:24:53+01:00</time>
      </trkpt>
      <trkpt lat="43.569" lon="3.72072">
        <ele>94</ele>
        <time>2023-11-23T15:25:14+01:00</time>
      </trkpt>
      <trkpt lat="43.56877" lon="3.72072">
        <ele>96</ele>
        <time>2023-11-23T15:25:36+01:00</time>
      </trkpt>
      <trkpt lat="43.5687" lon="3.72042">
        <ele>96</ele>
        <time>2023-11-23T15:26:54+01:00</time>
      </trkpt>
      <trkpt lat="43.56851" lon="3.72024">
        <ele>94</ele>
        <time>2023-11-23T15:27:38+01:00</time>
      </trkpt>
      <trkpt lat="43.56832" lon="3.72005">
        <ele>97</ele>
        <time>2023-11-23T15:28:05+01:00</time>
      </trkpt>
      <trkpt lat="43.5681" lon="3.71951">
        <ele>98</ele>
        <time>2023-11-23T15:29:01+01:00</time>
      </trkpt>
      <trkpt lat="43.56796" lon="3.71927">
        <ele>97</ele>
        <time>2023-11-23T15:29:25+01:00</time>
      </trkpt>
      <trkpt lat="43.56775" lon="3.71913">
        <ele>91</ele>
        <time>2023-11-23T15:29:51+01:00</time>
      </trkpt>
      <trkpt lat="43.56752" lon="3.71908">
        <ele>89</ele>
        <time>2023-11-23T15:30:15+01:00</time>
      </trkpt>
      <trkpt lat="43.56729" lon="3.71902">
        <ele>88</ele>
        <time>2023-11-23T15:30:38+01:00</time>
      </trkpt>
      <trkpt lat="43.56707" lon="3.71896">
        <ele>89</ele>
        <time>2023-11-23T15:31:04+01:00</time>
      </trkpt>
      <trkpt lat="43.56688" lon="3.71876">
        <ele>89</ele>
        <time>2023-11-23T15:31:33+01:00</time>
      </trkpt>
      <trkpt lat="43.56668" lon="3.71862">
        <ele>87</ele>
        <time>2023-11-23T15:31:59+01:00</time>
      </trkpt>
      <trkpt lat="43.56648" lon="3.71845">
        <ele>84</ele>
        <time>2023-11-23T15:32:30+01:00</time>
      </trkpt>
      <trkpt lat="43.56631" lon="3.71825">
        <ele>83</ele>
        <time>2023-11-23T15:32:58+01:00</time>
      </trkpt>
      <trkpt lat="43.56612" lon="3.71807">
        <ele>80</ele>
        <time>2023-11-23T15:33:33+01:00</time>
      </trkpt>
      <trkpt lat="43.56592" lon="3.7179">
        <ele>78</ele>
        <time>2023-11-23T15:33:58+01:00</time>
      </trkpt>
      <trkpt lat="43.56572" lon="3.71774">
        <ele>76</ele>
        <time>2023-11-23T15:34:25+01:00</time>
      </trkpt>
      <trkpt lat="43.56549" lon="3.71785">
        <ele>74</ele>
        <time>2023-11-23T15:35:01+01:00</time>
      </trkpt>
      <trkpt lat="43.56526" lon="3.71783">
        <ele>76</ele>
        <time>2023-11-23T15:35:28+01:00</time>
      </trkpt>
      <trkpt lat="43.56505" lon="3.71774">
        <ele>79</ele>
        <time>2023-11-23T15:36:02+01:00</time>
      </trkpt>
      <trkpt lat="43.56482" lon="3.71772">
        <ele>75</ele>
        <time>2023-11-23T15:36:33+01:00</time>
      </trkpt>
      <trkpt lat="43.56459" lon="3.71776">
        <ele>70</ele>
        <time>2023-11-23T15:36:58+01:00</time>
      </trkpt>
      <trkpt lat="43.56438" lon="3.71763">
        <ele>65</ele>
        <time>2023-11-23T15:37:23+01:00</time>
      </trkpt>
      <trkpt lat="43.56418" lon="3.71748">
        <ele>68</ele>
        <time>2023-11-23T15:38:01+01:00</time>
      </trkpt>
      <trkpt lat="43.56396" lon="3.71737">
        <ele>69</ele>
        <time>2023-11-23T15:38:28+01:00</time>
      </trkpt>
      <trkpt lat="43.56374" lon="3.71732">
        <ele>65</ele>
        <time>2023-11-23T15:38:50+01:00</time>
      </trkpt>
      <trkpt lat="43.56354" lon="3.71717">
        <ele>53</ele>
        <time>2023-11-23T15:39:25+01:00</time>
      </trkpt>
      <trkpt lat="43.56332" lon="3.71709">
        <ele>52</ele>
        <time>2023-11-23T15:40:03+01:00</time>
      </trkpt>
      <trkpt lat="43.56311" lon="3.717">
        <ele>53</ele>
        <time>2023-11-23T15:40:37+01:00</time>
      </trkpt>
      <trkpt lat="43.56295" lon="3.71676">
        <ele>56</ele>
        <time>2023-11-23T15:41:09+01:00</time>
      </trkpt>
      <trkpt lat="43.56266" lon="3.71627">
        <ele>61</ele>
        <time>2023-11-23T15:42:05+01:00</time>
      </trkpt>
      <trkpt lat="43.56251" lon="3.71603">
        <ele>60</ele>
        <time>2023-11-23T15:42:28+01:00</time>
      </trkpt>
      <trkpt lat="43.56235" lon="3.71581">
        <ele>59</ele>
        <time>2023-11-23T15:42:49+01:00</time>
      </trkpt>
      <trkpt lat="43.56214" lon="3.71567">
        <ele>56</ele>
        <time>2023-11-23T15:43:15+01:00</time>
      </trkpt>
      <trkpt lat="43.56201" lon="3.7154">
        <ele>54</ele>
        <time>2023-11-23T15:43:49+01:00</time>
      </trkpt>
      <trkpt lat="43.56191" lon="3.71511">
        <ele>50</ele>
        <time>2023-11-23T15:44:16+01:00</time>
      </trkpt>
      <trkpt lat="43.56192" lon="3.7148">
        <ele>49</ele>
        <time>2023-11-23T15:44:39+01:00</time>
      </trkpt>
      <trkpt lat="43.56158" lon="3.71458">
        <ele>45</ele>
        <time>2023-11-23T15:48:01+01:00</time>
      </trkpt>
      <trkpt lat="43.56139" lon="3.71475">
        <ele>41</ele>
        <time>2023-11-23T15:48:29+01:00</time>
      </trkpt>
      <trkpt lat="43.56123" lon="3.71498">
        <ele>38</ele>
        <time>2023-11-23T15:48:54+01:00</time>
      </trkpt>
      <trkpt lat="43.56117" lon="3.71528">
        <ele>34</ele>
        <time>2023-11-23T15:49:33+01:00</time>
      </trkpt>
      <trkpt lat="43.56103" lon="3.71587">
        <ele>40</ele>
        <time>2023-11-23T15:50:18+01:00</time>
      </trkpt>
      <trkpt lat="43.56093" lon="3.71615">
        <ele>44</ele>
        <time>2023-11-23T15:51:21+01:00</time>
      </trkpt>
      <trkpt lat="43.56076" lon="3.71636">
        <ele>50</ele>
        <time>2023-11-23T15:55:46+01:00</time>
      </trkpt>
      <trkpt lat="43.56062" lon="3.71661">
        <ele>52</ele>
        <time>2023-11-23T15:56:11+01:00</time>
      </trkpt>
      <trkpt lat="43.56048" lon="3.71685">
        <ele>52</ele>
        <time>2023-11-23T15:56:35+01:00</time>
      </trkpt>
      <trkpt lat="43.56031" lon="3.71707">
        <ele>52</ele>
        <time>2023-11-23T15:57:00+01:00</time>
      </trkpt>
      <trkpt lat="43.56016" lon="3.71731">
        <ele>49</ele>
        <time>2023-11-23T15:57:26+01:00</time>
      </trkpt>
      <trkpt lat="43.56" lon="3.71754">
        <ele>48</ele>
        <time>2023-11-23T15:57:48+01:00</time>
      </trkpt>
      <trkpt lat="43.55984" lon="3.71776">
        <ele>50</ele>
        <time>2023-11-23T15:58:11+01:00</time>
      </trkpt>
      <trkpt lat="43.55967" lon="3.71796">
        <ele>54</ele>
        <time>2023-11-23T15:58:35+01:00</time>
      </trkpt>
      <trkpt lat="43.55949" lon="3.71818">
        <ele>55</ele>
        <time>2023-11-23T15:58:58+01:00</time>
      </trkpt>
      <trkpt lat="43.55936" lon="3.71844">
        <ele>51</ele>
        <time>2023-11-23T15:59:22+01:00</time>
      </trkpt>
      <trkpt lat="43.55927" lon="3.71872">
        <ele>52</ele>
        <time>2023-11-23T15:59:58+01:00</time>
      </trkpt>
      <trkpt lat="43.55917" lon="3.719">
        <ele>56</ele>
        <time>2023-11-23T16:00:23+01:00</time>
      </trkpt>
      <trkpt lat="43.55887" lon="3.71953">
        <ele>52</ele>
        <time>2023-11-23T16:03:42+01:00</time>
      </trkpt>
      <trkpt lat="43.55874" lon="3.71979">
        <ele>55</ele>
        <time>2023-11-23T16:04:32+01:00</time>
      </trkpt>
      <trkpt lat="43.55881" lon="3.7201">
        <ele>52</ele>
        <time>2023-11-23T16:05:17+01:00</time>
      </trkpt>
      <trkpt lat="43.55881" lon="3.72042">
        <ele>54</ele>
        <time>2023-11-23T16:05:44+01:00</time>
      </trkpt>
      <trkpt lat="43.55864" lon="3.72063">
        <ele>55</ele>
        <time>2023-11-23T16:06:43+01:00</time>
      </trkpt>
    </trkseg>
  </trk>
</gpx>